Terminal Aerodrome Forecast
Issued by NWS Sioux Falls, SD

Home | Current Version | Previous Version | Graphics & Text | Print | Product List | Glossary On
Versions: 1 2 3 4 5 6 7 8 9 10 11 12 13 14 15
000
FTUS43 KFSD 242334
TAFFSD
TAF
KFSD 242334Z 2500/2524 36010KT P6SM BKN100
     FM250200 03007KT P6SM OVC050
     FM250600 10010KT 4SM -SN OVC025
     FM250800 08013KT 1SM -SN BR OVC010
     FM251500 06015G22KT 2SM -SN OVC015
     FM251900 03016G24KT 4SM -SN OVC018=

USA.gov is the U.S. government's official web portal to all federal, state and local government web resources and services.